Time;durP1;ratioP1;P1;durP2;ratioP2;P2;SDS_P1;SDS_P2;PMS_P1;PMS_P2;Temp;Humidity;BMP_temperature;BMP_pressure;BME280_temperature;BME280_humidity;BME280_pressure;Samples;Min_cycle;Max_cycle;Signal;HPM_P1;HPM_P2
2023/11/08 00:02:11;;;;;;;1.57;0.77;;;9.50;99.90;;;;;;5033203;28;20116;-53
2023/11/08 00:04:36;;;;;;;4.73;1.03;;;9.40;99.90;;;;;;5036918;28;20053;-51
2023/11/08 00:07:03;;;;;;;2.13;0.90;;;9.40;99.90;;;;;;5040528;28;20206;-51
2023/11/08 00:09:29;;;;;;;2.40;0.70;;;9.40;99.90;;;;;;5045007;28;20021;-52
2023/11/08 00:11:54;;;;;;;3.67;0.83;;;9.50;99.90;;;;;;5040123;28;20489;-52
2023/11/08 00:14:20;;;;;;;3.03;0.90;;;9.50;99.90;;;;;;5037362;28;20025;-52
2023/11/08 00:16:46;;;;;;;1.67;0.80;;;9.50;99.90;;;;;;5033793;28;20039;-53
2023/11/08 00:19:16;;;;;;;2.17;0.73;;;9.40;99.90;;;;;;5042063;28;20028;-53
2023/11/08 00:21:42;;;;;;;2.03;0.80;;;9.50;99.90;;;;;;5029611;28;20395;-55
2023/11/08 00:24:08;;;;;;;3.80;1.20;;;9.50;99.90;;;;;;5031350;28;20443;-52
2023/11/08 00:26:34;;;;;;;4.47;1.70;;;9.50;99.90;;;;;;5028751;28;20040;-53
2023/11/08 00:28:59;;;;;;;1.77;0.90;;;9.50;99.90;;;;;;5030865;28;20030;-51
2023/11/08 00:31:25;;;;;;;5.93;1.50;;;9.50;99.90;;;;;;5035001;28;20355;-52
2023/11/08 00:33:52;;;;;;;6.40;1.33;;;9.50;99.90;;;;;;5038866;28;20025;-52
2023/11/08 00:36:18;;;;;;;8.03;1.63;;;9.40;99.90;;;;;;5022840;28;20128;-54
2023/11/08 00:38:46;;;;;;;5.53;1.60;;;9.50;99.90;;;;;;5024590;28;20067;-52
2023/11/08 00:41:15;;;;;;;3.20;1.53;;;9.40;99.90;;;;;;5038694;28;20045;-51
2023/11/08 00:43:44;;;;;;;5.07;2.63;;;9.40;99.90;;;;;;5016546;28;20033;-53
2023/11/08 00:46:10;;;;;;;;;;;9.40;99.90;;;;;;5017564;28;20032;-53
2023/11/08 00:48:36;;;;;;;6.97;2.10;;;9.40;99.90;;;;;;5027989;28;19961;-52
2023/11/08 00:51:02;;;;;;;5.43;1.90;;;9.30;99.90;;;;;;5037330;28;20530;-54
2023/11/08 00:53:28;;;;;;;5.53;1.90;;;9.30;99.90;;;;;;5026199;28;20142;-52
2023/11/08 00:55:55;;;;;;;3.47;1.80;;;9.20;99.90;;;;;;5020334;28;20100;-52
2023/11/08 00:58:20;;;;;;;3.27;1.20;;;9.20;99.90;;;;;;5021977;28;20555;-52
2023/11/08 01:00:49;;;;;;;8.97;2.10;;;9.20;99.90;;;;;;5021114;28;20041;-54
2023/11/08 01:03:16;;;;;;;6.73;1.30;;;9.20;99.90;;;;;;5018782;28;20044;-52
2023/11/08 01:05:42;;;;;;;2.83;1.30;;;9.20;99.90;;;;;;5015149;28;20025;-56
2023/11/08 01:08:07;;;;;;;6.10;1.53;;;9.20;99.90;;;;;;5029371;28;20063;-55
2023/11/08 01:10:33;;;;;;;7.03;2.27;;;9.10;99.90;;;;;;5037519;28;20132;-54
2023/11/08 01:12:59;;;;;;;6.40;2.10;;;9.10;99.90;;;;;;5048781;28;20033;-56
2023/11/08 01:15:24;;;;;;;7.23;2.20;;;9.10;99.90;;;;;;5036021;28;20032;-51
2023/11/08 01:17:50;;;;;;;4.17;2.00;;;9.10;99.90;;;;;;5041979;28;20118;-51
2023/11/08 01:20:16;;;;;;;7.47;2.10;;;9.00;99.90;;;;;;5027771;28;20083;-51
2023/11/08 01:22:42;;;;;;;5.00;1.83;;;9.00;99.90;;;;;;5025606;28;20421;-54
2023/11/08 01:25:08;;;;;;;4.10;1.03;;;9.00;99.90;;;;;;5026392;28;20041;-54
2023/11/08 01:27:35;;;;;;;4.60;1.20;;;9.00;99.90;;;;;;5039771;28;20426;-53
2023/11/08 01:30:04;;;;;;;4.33;1.47;;;9.00;99.90;;;;;;5037494;28;20095;-54
2023/11/08 01:32:31;;;;;;;4.68;1.67;;;9.00;99.90;;;;;;5014477;28;20064;-51
2023/11/08 01:34:57;;;;;;;4.97;1.47;;;9.10;99.90;;;;;;5045294;28;20033;-56
2023/11/08 01:37:24;;;;;;;7.37;1.80;;;9.10;99.90;;;;;;5048542;28;20024;-54
2023/11/08 01:39:50;;;;;;;8.13;1.97;;;9.10;99.90;;;;;;5039338;28;20107;-55
2023/11/08 01:42:18;;;;;;;5.83;1.60;;;9.10;99.90;;;;;;5037022;28;20466;-51
2023/11/08 01:44:44;;;;;;;5.03;1.50;;;9.10;99.90;;;;;;5043243;28;20052;-51
2023/11/08 01:47:10;;;;;;;4.17;1.60;;;9.10;99.90;;;;;;5025228;28;20496;-54
2023/11/08 01:49:36;;;;;;;3.13;1.37;;;9.10;99.90;;;;;;5035710;28;20025;-51
2023/11/08 01:52:02;;;;;;;6.87;2.00;;;9.20;99.90;;;;;;5013912;28;20036;-55
2023/11/08 01:54:28;;;;;;;5.47;1.57;;;9.20;99.90;;;;;;5018698;28;20108;-51
2023/11/08 01:56:55;;;;;;;4.10;1.40;;;9.20;99.90;;;;;;5022107;28;20623;-52
2023/11/08 01:59:24;;;;;;;5.50;1.63;;;9.20;99.90;;;;;;5016908;28;20025;-54
2023/11/08 02:01:50;;;;;;;4.00;1.33;;;9.20;99.90;;;;;;5023259;28;20136;-52
2023/11/08 02:04:17;;;;;;;3.30;1.67;;;9.30;99.90;;;;;;5016502;28;20136;-54
2023/11/08 02:06:43;;;;;;;5.37;1.07;;;9.30;99.90;;;;;;5016883;28;20036;-55
2023/11/08 02:09:09;;;;;;;2.73;0.87;;;9.30;99.90;;;;;;5021257;28;20020;-51
2023/11/08 02:11:38;;;;;;;2.73;1.03;;;9.30;99.90;;;;;;5017054;28;20021;-52
2023/11/08 02:14:05;;;;;;;3.27;1.67;;;9.30;99.90;;;;;;5021622;28;20025;-54
2023/11/08 02:16:32;;;;;;;3.03;1.10;;;9.20;99.90;;;;;;5035425;28;20425;-52
2023/11/08 02:18:57;;;;;;;4.10;1.10;;;9.30;99.90;;;;;;5021873;28;20082;-54
2023/11/08 02:21:23;;;;;;;2.93;1.10;;;9.30;99.90;;;;;;5014465;28;20030;-53
2023/11/08 02:23:49;;;;;;;3.53;1.03;;;9.30;99.90;;;;;;5030050;28;20212;-53
2023/11/08 02:26:15;;;;;;;3.17;1.10;;;9.20;99.90;;;;;;5025956;28;20048;-52
2023/11/08 02:28:43;;;;;;;3.00;0.90;;;9.30;99.90;;;;;;5042390;28;20340;-52
2023/11/08 02:31:08;;;;;;;3.20;0.80;;;9.30;99.90;;;;;;5037344;28;20028;-50
2023/11/08 02:33:34;;;;;;;3.83;1.10;;;9.20;99.90;;;;;;5021870;28;20021;-54
2023/11/08 02:36:00;;;;;;;3.47;0.87;;;9.20;99.90;;;;;;5030762;28;20025;-54
2023/11/08 02:38:27;;;;;;;2.10;0.70;;;9.10;99.90;;;;;;5035006;28;20118;-50
2023/11/08 02:40:52;;;;;;;5.13;0.70;;;9.20;99.90;;;;;;5043412;28;20065;-51
2023/11/08 02:43:18;;;;;;;3.70;0.90;;;9.20;99.90;;;;;;5038111;28;20520;-55
2023/11/08 02:45:44;;;;;;;2.97;0.77;;;9.20;99.90;;;;;;5025034;28;20038;-54
2023/11/08 02:48:10;;;;;;;2.07;0.93;;;9.10;99.90;;;;;;5037960;28;20025;-51
2023/11/08 02:50:41;;;;;;;1.63;0.60;;;9.20;99.90;;;;;;5034807;28;20104;-53
2023/11/08 02:53:07;;;;;;;3.93;1.73;;;9.20;99.90;;;;;;5015802;28;20018;-53
2023/11/08 02:55:34;;;;;;;2.73;0.93;;;9.10;99.90;;;;;;5020846;28;20028;-51
2023/11/08 02:58:01;;;;;;;5.20;0.93;;;9.20;99.90;;;;;;5011688;28;20036;-54
2023/11/08 03:00:26;;;;;;;5.13;0.80;;;9.20;99.90;;;;;;5034426;28;20191;-53
2023/11/08 03:02:53;;;;;;;6.07;1.20;;;9.30;99.90;;;;;;5041772;28;20063;-51
2023/11/08 03:05:21;;;;;;;4.43;0.70;;;9.30;99.90;;;;;;5035153;28;20344;-52
2023/11/08 03:07:49;;;;;;;2.70;0.97;;;9.30;99.90;;;;;;5042494;28;20044;-52
2023/11/08 03:10:17;;;;;;;4.23;0.70;;;9.30;99.90;;;;;;5019889;28;20445;-51
2023/11/08 03:12:50;;;;;;;4.37;0.70;;;9.30;99.90;;;;;;5026609;28;20033;-51
2023/11/08 03:15:17;;;;;;;2.23;0.83;;;9.30;99.90;;;;;;5043136;28;20059;-53
2023/11/08 03:17:44;;;;;;;1.63;0.80;;;9.30;99.90;;;;;;5036117;28;20439;-52
2023/11/08 03:20:12;;;;;;;2.60;0.80;;;9.30;99.90;;;;;;5017094;28;20117;-50
2023/11/08 03:22:39;;;;;;;2.90;0.80;;;9.30;99.90;;;;;;5021716;28;20029;-51
2023/11/08 03:25:06;;;;;;;1.57;0.80;;;9.40;99.90;;;;;;5036732;28;20390;-51
2023/11/08 03:27:31;;;;;;;2.20;0.70;;;9.40;99.90;;;;;;5040585;28;20348;-52
2023/11/08 03:29:57;;;;;;;2.17;0.70;;;9.30;99.90;;;;;;5036734;28;20037;-53
2023/11/08 03:32:27;;;;;;;2.17;0.73;;;9.30;99.90;;;;;;5036910;28;20029;-50
2023/11/08 03:34:55;;;;;;;;;;;9.40;99.90;;;;;;5041402;28;20033;-51
2023/11/08 03:37:21;;;;;;;2.60;0.80;;;9.30;99.90;;;;;;5041603;28;19915;-52
2023/11/08 03:39:47;;;;;;;2.47;0.70;;;9.30;99.90;;;;;;5035318;28;20033;-52
2023/11/08 03:42:12;;;;;;;1.67;0.60;;;9.30;99.90;;;;;;5039561;28;20025;-51
2023/11/08 03:44:38;;;;;;;2.17;0.63;;;9.30;99.90;;;;;;5038719;28;20108;-52
2023/11/08 03:47:06;;;;;;;2.60;0.80;;;9.30;99.90;;;;;;5036415;28;20025;-50
2023/11/08 03:49:34;;;;;;;1.57;0.60;;;9.30;99.90;;;;;;5034290;28;20397;-50
2023/11/08 03:52:02;;;;;;;1.00;0.60;;;9.30;99.90;;;;;;5045449;28;20029;-54
2023/11/08 03:54:27;;;;;;;1.37;0.70;;;9.30;99.90;;;;;;5033652;28;20018;-50
2023/11/08 03:56:53;;;;;;;1.40;0.40;;;9.30;99.90;;;;;;5033375;28;20025;-50
2023/11/08 03:59:18;;;;;;;1.03;0.70;;;9.30;99.90;;;;;;5036914;28;20096;-50
2023/11/08 04:01:46;;;;;;;0.80;0.43;;;9.30;99.90;;;;;;5037312;28;20036;-49
2023/11/08 04:04:12;;;;;;;1.27;0.50;;;9.30;99.90;;;;;;5041440;28;20214;-51
2023/11/08 04:06:37;;;;;;;3.27;0.47;;;9.30;99.90;;;;;;5036860;28;20372;-50
2023/11/08 04:09:04;;;;;;;1.77;0.60;;;9.30;99.90;;;;;;5045409;28;20021;-51
2023/11/08 04:11:30;;;;;;;3.87;0.80;;;9.30;99.90;;;;;;5033803;28;20139;-51
2023/11/08 04:13:56;;;;;;;2.23;0.70;;;9.30;99.90;;;;;;5041374;28;20227;-52
2023/11/08 04:16:21;;;;;;;1.80;0.53;;;9.30;99.90;;;;;;5038607;28;20033;-52
2023/11/08 04:18:47;;;;;;;1.90;0.77;;;9.30;99.90;;;;;;5034820;28;20138;-51
2023/11/08 04:21:14;;;;;;;1.83;0.80;;;9.30;99.90;;;;;;5031386;28;20052;-51
2023/11/08 04:23:39;;;;;;;1.70;0.80;;;9.30;99.90;;;;;;5035210;28;20474;-50
2023/11/08 04:26:06;;;;;;;1.67;0.80;;;9.30;99.90;;;;;;5032328;28;20029;-51
2023/11/08 04:28:32;;;;;;;4.43;1.03;;;9.30;99.90;;;;;;5032980;28;20029;-52
2023/11/08 04:30:58;;;;;;;3.97;0.97;;;9.30;99.90;;;;;;5037891;28;20053;-51
2023/11/08 04:33:24;;;;;;;1.67;1.00;;;9.30;99.90;;;;;;5040080;28;20028;-51
2023/11/08 04:35:50;;;;;;;4.20;0.60;;;9.20;99.90;;;;;;5036235;28;20026;-50
2023/11/08 04:38:15;;;;;;;1.20;0.63;;;9.20;99.90;;;;;;5036461;28;20079;-53
2023/11/08 04:40:42;;;;;;;2.83;0.70;;;9.10;99.90;;;;;;5033316;28;20029;-50
2023/11/08 04:43:08;;;;;;;2.97;0.60;;;9.10;99.90;;;;;;5038545;28;20040;-50
2023/11/08 04:45:33;;;;;;;2.17;0.70;;;9.00;99.90;;;;;;5045760;28;20414;-51
2023/11/08 04:47:59;;;;;;;3.80;0.77;;;9.00;99.90;;;;;;5039281;28;20037;-50
2023/11/08 04:50:24;;;;;;;4.50;0.80;;;8.90;99.90;;;;;;5019009;28;20034;-51
2023/11/08 04:52:50;;;;;;;3.87;0.80;;;8.90;99.90;;;;;;5045337;28;20025;-50
2023/11/08 04:55:16;;;;;;;1.80;1.10;;;8.80;99.90;;;;;;5039426;28;20025;-50
2023/11/08 04:57:41;;;;;;;6.63;1.03;;;8.90;99.90;;;;;;5036825;28;20037;-50
2023/11/08 05:00:10;;;;;;;4.60;1.10;;;8.80;99.90;;;;;;5040312;28;20029;-52
2023/11/08 05:02:36;;;;;;;4.32;1.08;;;8.80;99.90;;;;;;5040598;28;20096;-55
2023/11/08 05:05:01;;;;;;;3.50;1.30;;;8.80;99.90;;;;;;5054435;28;20060;-53
2023/11/08 05:07:27;;;;;;;2.77;1.20;;;8.80;99.90;;;;;;5038480;28;20025;-56
2023/11/08 05:09:53;;;;;;;4.43;1.47;;;8.80;99.90;;;;;;5047678;28;20083;-53
2023/11/08 05:12:19;;;;;;;2.93;1.00;;;8.70;99.90;;;;;;5043502;28;20583;-51
2023/11/08 05:14:46;;;;;;;4.87;1.10;;;8.70;99.90;;;;;;5042806;28;20033;-54
2023/11/08 05:17:11;;;;;;;5.17;1.07;;;8.70;99.90;;;;;;5034607;28;20079;-51
2023/11/08 05:19:37;;;;;;;3.73;0.87;;;8.60;99.90;;;;;;5051218;28;20029;-54
2023/11/08 05:22:03;;;;;;;4.37;0.90;;;8.50;99.90;;;;;;5045977;28;20029;-56
2023/11/08 05:24:30;;;;;;;3.67;1.00;;;8.40;99.90;;;;;;5037977;28;20041;-56
2023/11/08 05:26:56;;;;;;;2.73;0.83;;;8.40;99.90;;;;;;5033054;28;20119;-53
2023/11/08 05:29:22;;;;;;;2.27;0.90;;;8.40;99.90;;;;;;5032637;28;20474;-51
2023/11/08 05:31:47;;;;;;;2.87;0.87;;;8.40;99.90;;;;;;5032638;28;20401;-51
2023/11/08 05:34:15;;;;;;;1.77;0.70;;;8.40;99.90;;;;;;5032033;28;20390;-53
2023/11/08 05:36:40;;;;;;;2.67;0.73;;;8.40;99.90;;;;;;5032606;28;20029;-53
2023/11/08 05:39:06;;;;;;;2.63;0.80;;;8.30;99.90;;;;;;5032022;28;20037;-55
2023/11/08 05:41:32;;;;;;;4.77;0.90;;;8.30;99.90;;;;;;5032533;28;20485;-52
2023/11/08 05:43:58;;;;;;;3.00;0.73;;;8.30;99.90;;;;;;5032574;28;20073;-55
2023/11/08 05:46:27;;;;;;;4.03;0.60;;;8.20;99.90;;;;;;5032923;28;20041;-51
2023/11/08 05:48:57;;;;;;;;;;;8.20;99.90;;;;;;5014926;28;20091;-53
2023/11/08 05:51:25;;;;;;;4.57;0.93;;;8.20;99.90;;;;;;5032366;28;19999;-52
2023/11/08 05:53:51;;;;;;;1.17;0.67;;;8.10;99.90;;;;;;5032767;28;20037;-54
2023/11/08 05:56:17;;;;;;;4.33;0.87;;;8.10;99.90;;;;;;5033129;28;20044;-50
2023/11/08 05:58:43;;;;;;;4.00;1.00;;;8.10;99.90;;;;;;5032176;28;20101;-53
2023/11/08 06:01:13;;;;;;;1.60;0.50;;;8.10;99.90;;;;;;5032703;28;20109;-52
2023/11/08 06:03:39;;;;;;;2.47;0.73;;;8.10;99.90;;;;;;5015083;28;20068;-53
2023/11/08 06:06:05;;;;;;;2.17;0.90;;;8.00;99.90;;;;;;5032629;28;20056;-53
2023/11/08 06:08:31;;;;;;;2.27;0.80;;;8.00;99.90;;;;;;5031778;28;20025;-52
2023/11/08 06:10:57;;;;;;;3.57;0.83;;;7.90;99.90;;;;;;5014623;28;20481;-54
2023/11/08 06:13:23;;;;;;;1.70;0.60;;;7.90;99.90;;;;;;5032254;28;20466;-51
2023/11/08 06:15:48;;;;;;;2.47;0.80;;;7.90;99.90;;;;;;5032547;28;20328;-50
2023/11/08 06:18:14;;;;;;;2.07;0.87;;;7.90;99.90;;;;;;5032578;28;20034;-55
2023/11/08 06:20:40;;;;;;;4.27;1.40;;;7.90;99.90;;;;;;5014589;28;20038;-52
2023/11/08 06:23:06;;;;;;;2.33;0.60;;;8.00;99.90;;;;;;5032530;28;20129;-51
2023/11/08 06:25:32;;;;;;;1.43;0.60;;;7.90;99.90;;;;;;5032791;28;20596;-51
2023/11/08 06:28:02;;;;;;;4.27;0.90;;;7.90;99.90;;;;;;5032016;28;20116;-55
2023/11/08 06:30:27;;;;;;;4.00;0.97;;;7.80;99.90;;;;;;5032508;28;20470;-51
2023/11/08 06:32:54;;;;;;;1.43;0.67;;;7.80;99.90;;;;;;5032421;28;20041;-55
2023/11/08 06:35:20;;;;;;;2.73;0.73;;;7.80;99.90;;;;;;5032285;28;20037;-53
2023/11/08 06:37:46;;;;;;;5.70;1.30;;;7.80;99.90;;;;;;5032432;28;20112;-53
2023/11/08 06:40:13;;;;;;;3.20;0.93;;;7.80;99.90;;;;;;5032170;28;20033;-53
2023/11/08 06:42:39;;;;;;;3.73;1.57;;;7.90;99.90;;;;;;5033725;28;20036;-49
2023/11/08 06:45:05;;;;;;;4.83;0.83;;;7.90;99.90;;;;;;5035644;28;20486;-50
2023/11/08 06:47:31;;;;;;;2.67;0.73;;;7.90;99.90;;;;;;5034824;28;20061;-55
2023/11/08 06:49:57;;;;;;;1.80;0.80;;;7.80;99.90;;;;;;5015275;28;20383;-53
2023/11/08 06:52:26;;;;;;;5.27;1.10;;;7.90;99.90;;;;;;5032589;28;20355;-51
2023/11/08 06:54:52;;;;;;;2.30;0.77;;;7.80;99.90;;;;;;5032531;28;20030;-51
2023/11/08 06:57:18;;;;;;;6.17;1.20;;;7.90;99.90;;;;;;5032279;28;20493;-51
2023/11/08 06:59:44;;;;;;;5.17;0.73;;;7.90;99.90;;;;;;5032012;28;20034;-52
2023/11/08 07:02:10;;;;;;;3.10;1.07;;;8.00;99.90;;;;;;5031753;28;20037;-55
2023/11/08 07:04:37;;;;;;;5.40;1.63;;;7.90;99.90;;;;;;5031491;28;20033;-51
2023/11/08 07:07:03;;;;;;;2.83;0.70;;;7.90;99.90;;;;;;5031952;28;20532;-51
2023/11/08 07:09:29;;;;;;;4.30;1.03;;;7.90;99.90;;;;;;5031461;28;20044;-53
2023/11/08 07:11:55;;;;;;;3.70;1.07;;;7.90;99.90;;;;;;5031842;28;20117;-52
2023/11/08 07:14:21;;;;;;;5.00;1.27;;;7.90;99.90;;;;;;5031731;28;20087;-50
2023/11/08 07:16:46;;;;;;;5.40;1.00;;;8.00;99.90;;;;;;5031813;28;20052;-55
2023/11/08 07:19:13;;;;;;;3.83;1.10;;;8.00;99.90;;;;;;5031192;28;20465;-55
2023/11/08 07:21:39;;;;;;;2.83;1.03;;;8.10;99.90;;;;;;5031457;28;20317;-56
2023/11/08 07:24:06;;;;;;;2.50;1.10;;;8.10;99.90;;;;;;5030965;28;20037;-56
2023/11/08 07:26:32;;;;;;;2.77;1.07;;;8.20;99.90;;;;;;5031508;28;20124;-55
2023/11/08 07:28:58;;;;;;;2.80;0.80;;;8.20;99.90;;;;;;5030638;28;20065;-55
2023/11/08 07:31:24;;;;;;;3.27;0.90;;;8.20;99.90;;;;;;5031492;28;20052;-55
2023/11/08 07:33:50;;;;;;;4.80;1.03;;;8.30;99.90;;;;;;5031354;28;20414;-54
2023/11/08 07:36:16;;;;;;;2.63;0.93;;;8.30;99.90;;;;;;5031471;28;20044;-56
2023/11/08 07:38:41;;;;;;;3.77;1.00;;;8.30;99.90;;;;;;5030544;28;20029;-55
2023/11/08 07:41:08;;;;;;;6.10;1.17;;;8.30;99.90;;;;;;5031319;28;20497;-55
2023/11/08 07:43:33;;;;;;;4.20;0.80;;;8.40;99.90;;;;;;5012727;28;20025;-53
2023/11/08 07:45:59;;;;;;;3.20;1.30;;;8.40;99.90;;;;;;5031353;28;20032;-51
2023/11/08 07:48:28;;;;;;;3.80;1.00;;;8.50;99.90;;;;;;5030673;28;20033;-53
2023/11/08 07:50:54;;;;;;;3.45;0.98;;;8.50;99.90;;;;;;5031413;28;20089;-56
2023/11/08 07:53:20;;;;;;;4.67;1.27;;;8.50;99.90;;;;;;5030938;28;20060;-56
2023/11/08 07:55:49;;;;;;;5.07;1.30;;;8.60;99.90;;;;;;5031619;28;20057;-52
2023/11/08 07:58:17;;;;;;;9.57;1.30;;;8.70;99.90;;;;;;5030709;28;20140;-54
2023/11/08 08:00:45;;;;;;;2.97;1.20;;;8.80;99.90;;;;;;5052099;28;20059;-55
2023/11/08 08:03:15;;;;;;;3.88;1.15;;;8.80;99.90;;;;;;5035391;28;20048;-58
2023/11/08 08:05:44;;;;;;;4.50;1.10;;;8.90;99.90;;;;;;5054779;28;20040;-54
2023/11/08 08:08:12;;;;;;;5.80;1.35;;;9.00;99.90;;;;;;5053933;28;20094;-52
2023/11/08 08:10:38;;;;;;;17.77;7.77;;;9.00;99.90;;;;;;5053433;28;20029;-51
2023/11/08 08:13:04;;;;;;;5.73;1.47;;;9.10;99.90;;;;;;5048213;28;20048;-54
2023/11/08 08:15:30;;;;;;;3.37;1.07;;;9.10;99.90;;;;;;5033084;28;20418;-51
2023/11/08 08:17:56;;;;;;;4.93;1.30;;;9.10;99.90;;;;;;5054392;28;20395;-52
2023/11/08 08:20:22;;;;;;;2.97;1.30;;;9.20;99.90;;;;;;5055504;28;20083;-52
2023/11/08 08:22:47;;;;;;;5.43;1.50;;;9.30;99.90;;;;;;5054773;28;20060;-53
2023/11/08 08:25:13;;;;;;;2.37;1.80;;;9.40;99.90;;;;;;5036544;28;20040;-50
2023/11/08 08:27:40;;;;;;;7.33;1.20;;;9.40;99.90;;;;;;5037874;28;20132;-51
2023/11/08 08:30:14;;;;;;;5.03;1.03;;;9.50;99.90;;;;;;5027325;28;20041;-52
2023/11/08 08:32:47;;;;;;;2.97;1.30;;;9.60;99.90;;;;;;5035124;28;20022;-54
2023/11/08 08:35:13;;;;;;;12.73;3.63;;;9.60;99.90;;;;;;5035840;28;20394;-55
2023/11/08 08:37:39;;;;;;;6.00;1.60;;;9.70;99.90;;;;;;5035726;28;20079;-50
2023/11/08 08:40:10;;;;;;;2.37;1.20;;;9.90;99.90;;;;;;5033959;28;20433;-55
2023/11/08 08:42:40;;;;;;;2.73;1.20;;;10.10;99.90;;;;;;5034335;28;20102;-54
2023/11/08 08:45:10;;;;;;;3.27;0.80;;;10.20;99.90;;;;;;5033910;28;20026;-51
2023/11/08 08:47:37;;;;;;;4.90;1.50;;;10.50;99.90;;;;;;5034125;28;20048;-54
2023/11/08 08:50:04;;;;;;;4.40;1.07;;;10.80;99.90;;;;;;5033932;28;20080;-49
2023/11/08 08:52:30;;;;;;;2.83;1.10;;;11.10;99.90;;;;;;5035812;28;20084;-51
2023/11/08 08:54:55;;;;;;;3.60;0.90;;;11.40;99.90;;;;;;5035466;28;20034;-52
2023/11/08 08:57:22;;;;;;;3.27;1.00;;;11.40;99.90;;;;;;5035635;28;20104;-51
2023/11/08 08:59:47;;;;;;;3.30;1.10;;;11.40;99.90;;;;;;5035628;28;20029;-54
2023/11/08 09:02:13;;;;;;;6.90;1.37;;;11.50;99.90;;;;;;5017087;28;20133;-52
2023/11/08 09:04:39;;;;;;;4.10;1.10;;;11.60;99.90;;;;;;5034660;28;20591;-53
2023/11/08 09:07:05;;;;;;;5.30;1.30;;;11.90;99.90;;;;;;5034434;28;20026;-53
2023/11/08 09:09:30;;;;;;;2.40;0.63;;;12.00;99.90;;;;;;5034952;28;20072;-53
2023/11/08 09:11:57;;;;;;;4.97;1.13;;;12.00;99.90;;;;;;5035480;28;20060;-54
2023/11/08 09:14:23;;;;;;;5.15;1.20;;;11.80;99.90;;;;;;5017327;28;20458;-52
2023/11/08 09:16:49;;;;;;;6.90;1.08;;;11.60;99.90;;;;;;5035716;28;20040;-54
2023/11/08 09:19:15;;;;;;;4.82;1.00;;;11.40;99.90;;;;;;5034669;28;20040;-51
2023/11/08 09:21:42;;;;;;;4.32;1.15;;;11.50;99.90;;;;;;5035000;28;20038;-53
2023/11/08 09:24:09;;;;;;;4.07;0.95;;;11.70;99.90;;;;;;5035076;28;20132;-53
2023/11/08 09:26:35;;;;;;;3.53;0.95;;;12.40;99.90;;;;;;5032959;28;20033;-54
2023/11/08 09:29:01;;;;;;;5.22;1.13;;;13.30;99.90;;;;;;5016872;28;20152;-54
2023/11/08 09:31:26;;;;;;;4.03;1.08;;;14.20;99.90;;;;;;5034762;28;20148;-54
2023/11/08 09:33:53;;;;;;;3.97;0.95;;;15.10;99.90;;;;;;5017580;28;20037;-52
2023/11/08 09:36:21;;;;;;;3.50;1.00;;;15.50;99.90;;;;;;5035186;28;20045;-57
2023/11/08 09:38:47;;;;;;;3.70;0.90;;;15.70;99.90;;;;;;5016706;28;20132;-54
2023/11/08 09:41:13;;;;;;;4.63;1.17;;;15.40;99.90;;;;;;5035572;28;20033;-55
2023/11/08 09:43:41;;;;;;;5.68;0.90;;;15.00;99.90;;;;;;5017593;28;20029;-55
2023/11/08 09:46:07;;;;;;;1.27;0.50;;;14.80;99.90;;;;;;5035782;28;20499;-55
2023/11/08 09:48:33;;;;;;;6.32;0.90;;;14.50;99.90;;;;;;5016740;28;20044;-54
2023/11/08 09:50:59;;;;;;;4.00;0.85;;;14.40;99.90;;;;;;5035149;28;20025;-55
2023/11/08 09:53:24;;;;;;;1.60;0.60;;;13.80;99.90;;;;;;5035688;28;20028;-51
2023/11/08 09:55:54;;;;;;;7.25;1.00;;;13.50;99.90;;;;;;5046018;28;20045;-52
2023/11/08 09:58:20;;;;;;;3.28;1.15;;;13.20;99.90;;;;;;5033850;28;20479;-54
2023/11/08 10:00:47;;;;;;;3.13;0.90;;;13.20;99.90;;;;;;5034305;28;20128;-54
2023/11/08 10:03:15;;;;;;;6.03;0.90;;;13.40;99.90;;;;;;5016635;28;20080;-54
2023/11/08 10:05:40;;;;;;;4.93;1.02;;;13.40;99.90;;;;;;5034354;28;20125;-52
2023/11/08 10:08:10;;;;;;;6.15;1.10;;;13.60;99.90;;;;;;5034259;28;20071;-50
2023/11/08 10:10:37;;;;;;;3.05;0.70;;;13.90;99.90;;;;;;5034641;28;20029;-53
2023/11/08 10:13:04;;;;;;;5.68;0.98;;;14.00;99.90;;;;;;5034570;28;20037;-54
2023/11/08 10:15:31;;;;;;;3.03;0.77;;;14.00;99.90;;;;;;5016710;28;20022;-53
2023/11/08 10:17:56;;;;;;;2.85;0.60;;;14.50;99.90;;;;;;5016545;28;20029;-52
2023/11/08 10:20:26;;;;;;;4.47;0.90;;;14.50;99.90;;;;;;5016353;28;20398;-53
2023/11/08 10:22:52;;;;;;;2.30;0.75;;;14.50;99.90;;;;;;5034623;28;20033;-52
2023/11/08 10:25:18;;;;;;;1.77;0.60;;;14.40;99.90;;;;;;5034878;28;20564;-55
2023/11/08 10:28:04;;;;;;;2.25;0.88;;;14.30;99.90;;;;;;5034014;28;20037;-53
2023/11/08 10:30:38;;;;;;;5.95;1.45;;;14.10;99.90;;;;;;5033806;28;20112;-52
2023/11/08 10:33:11;;;;;;;4.32;0.80;;;14.20;99.90;;;;;;5034453;28;20426;-54
2023/11/08 10:35:42;;;;;;;3.88;0.90;;;15.10;99.90;;;;;;5034086;28;20033;-53
2023/11/08 10:38:10;;;;;;;4.13;0.75;;;16.40;99.90;;;;;;5033178;28;20022;-54
2023/11/08 10:40:36;;;;;;;3.17;0.90;;;17.00;99.90;;;;;;5033754;28;20029;-50
2023/11/08 10:43:03;;;;;;;6.07;0.73;;;17.10;99.90;;;;;;5033483;28;20117;-50
2023/11/08 10:45:32;;;;;;;5.40;1.20;;;17.10;99.90;;;;;;5034173;28;20371;-55
2023/11/08 10:47:59;;;;;;;4.95;0.80;;;17.90;98.90;;;;;;5033941;28;20068;-54
2023/11/08 10:50:25;;;;;;;2.15;0.80;;;18.50;97.30;;;;;;5033795;28;20068;-50
2023/11/08 10:52:52;;;;;;;4.22;1.00;;;18.60;96.40;;;;;;5033811;28;20033;-54
2023/11/08 10:55:19;;;;;;;1.63;0.63;;;17.90;97.00;;;;;;5033456;28;20032;-55
2023/11/08 10:58:04;;;;;;;4.05;0.80;;;17.90;97.20;;;;;;5033385;28;20033;-55
2023/11/08 11:00:34;;;;;;;3.45;0.88;;;17.60;97.90;;;;;;5033882;28;20045;-54
2023/11/08 11:03:08;;;;;;;4.43;0.70;;;16.70;99.00;;;;;;5033730;28;20482;-54
2023/11/08 11:05:37;;;;;;;6.18;1.10;;;16.30;99.90;;;;;;5034480;28;20025;-55
2023/11/08 11:08:05;;;;;;;2.83;0.82;;;15.70;99.90;;;;;;5033438;28;20335;-51
2023/11/08 11:10:32;;;;;;;3.45;0.88;;;15.00;99.90;;;;;;5033043;28;20042;-49
2023/11/08 11:13:03;;;;;;;4.88;0.90;;;14.80;99.90;;;;;;5033747;28;20029;-49
2023/11/08 11:15:56;;;;;;;3.85;0.68;;;14.80;99.90;;;;;;5033443;28;20032;-52
2023/11/08 11:18:32;;;;;;;3.53;0.82;;;15.10;99.90;;;;;;5015273;28;20063;-52
2023/11/08 11:21:22;;;;;;;1.50;0.60;;;15.10;99.90;;;;;;5033538;28;20034;-53
2023/11/08 11:23:48;;;;;;;3.55;0.73;;;14.80;99.90;;;;;;5033677;28;20048;-53
2023/11/08 11:26:34;;;;;;;1.70;0.70;;;14.40;99.90;;;;;;5033461;28;20033;-52
2023/11/08 11:28:59;;;;;;;4.68;1.10;;;14.40;99.90;;;;;;5032732;28;20041;-54
2023/11/08 11:31:40;;;;;;;4.82;0.80;;;14.30;99.90;;;;;;5033438;28;20026;-52
2023/11/08 11:34:29;;;;;;;4.03;0.85;;;14.20;99.90;;;;;;5033599;28;20044;-52
2023/11/08 11:37:00;;;;;;;4.38;0.70;;;14.20;99.90;;;;;;5032969;28;20117;-49
2023/11/08 11:39:29;;;;;;;4.72;0.80;;;14.20;99.90;;;;;;5033284;28;20372;-49
2023/11/08 11:41:58;;;;;;;3.67;0.90;;;14.10;99.90;;;;;;5033394;28;20037;-51
2023/11/08 11:44:38;;;;;;;3.28;0.88;;;14.00;99.90;;;;;;5033212;28;20033;-54
2023/11/08 11:47:07;;;;;;;1.63;0.70;;;13.80;99.90;;;;;;5033288;28;20037;-50
2023/11/08 11:49:37;;;;;;;4.68;1.20;;;13.70;99.90;;;;;;5032695;28;20025;-49
2023/11/08 11:52:03;;;;;;;3.38;0.80;;;13.60;99.90;;;;;;5032635;28;20061;-52
2023/11/08 11:54:29;;;;;;;2.30;0.65;;;13.10;99.90;;;;;;5033148;28;20021;-50
2023/11/08 11:56:54;;;;;;;1.25;0.60;;;13.00;99.90;;;;;;5032954;28;20037;-52
2023/11/08 11:59:20;;;;;;;2.90;0.63;;;13.10;99.90;;;;;;5032759;28;20033;-50
2023/11/08 12:01:46;;;;;;;4.25;0.80;;;13.20;99.90;;;;;;5033610;28;20025;-53
2023/11/08 12:04:12;;;;;;;2.03;0.52;;;13.30;99.90;;;;;;5033312;28;20049;-51
2023/11/08 12:06:39;;;;;;;3.08;0.82;;;13.30;99.90;;;;;;5032920;28;20091;-53
2023/11/08 12:09:05;;;;;;;1.83;0.65;;;13.10;99.90;;;;;;5032909;28;20112;-52
2023/11/08 12:11:32;;;;;;;2.78;0.73;;;13.10;99.90;;;;;;5032500;28;20049;-49
2023/11/08 12:13:58;;;;;;;5.28;1.02;;;13.00;99.90;;;;;;5032920;28;20028;-49
2023/11/08 12:16:23;;;;;;;3.90;0.65;;;13.10;99.90;;;;;;5033868;28;20056;-50
2023/11/08 12:18:51;;;;;;;5.72;0.77;;;13.10;99.90;;;;;;5033436;28;20057;-49
2023/11/08 12:21:17;;;;;;;3.05;1.00;;;13.00;99.90;;;;;;5033728;28;20026;-49
2023/11/08 12:23:51;;;;;;;3.72;0.82;;;12.90;99.90;;;;;;5034266;28;20042;-53
2023/11/08 12:26:19;;;;;;;1.85;0.90;;;12.90;99.90;;;;;;5032485;28;20456;-54
2023/11/08 12:28:46;;;;;;;3.63;0.85;;;12.90;99.90;;;;;;5031778;28;20053;-53
2023/11/08 12:31:14;;;;;;;1.80;0.60;;;12.90;99.90;;;;;;5032069;28;20503;-53
2023/11/08 12:33:40;;;;;;;4.85;1.30;;;12.60;99.90;;;;;;5032126;28;20030;-51
2023/11/08 12:36:09;;;;;;;3.88;0.70;;;12.70;99.90;;;;;;5032056;28;20067;-53
2023/11/08 12:38:38;;;;;;;3.42;0.60;;;12.70;99.90;;;;;;5014195;28;20414;-54
2023/11/08 12:41:05;;;;;;;;;;;12.90;99.90;;;;;;5032981;28;20025;-52
2023/11/08 12:43:31;;;;;;;4.10;0.80;;;12.90;99.90;;;;;;5032122;28;20281;-50
2023/11/08 12:46:09;;;;;;;1.60;0.50;;;12.90;99.90;;;;;;5032163;28;20120;-54
2023/11/08 12:48:36;;;;;;;2.83;0.80;;;12.80;99.90;;;;;;5031863;28;20068;-52
2023/11/08 12:51:05;;;;;;;4.55;0.70;;;12.70;99.90;;;;;;5031614;28;20980;-54
2023/11/08 12:53:31;;;;;;;1.88;0.60;;;12.60;99.90;;;;;;5031944;28;20306;-52
2023/11/08 12:56:05;;;;;;;4.78;1.05;;;12.50;99.90;;;;;;5031935;28;20079;-53